sensor_id;sensor_type;location;lat;lon;timestamp;P1;durP1;ratioP1;P2;durP2;ratioP2
75837;SDS011;64480;52.040;113.502;2023-07-31T00:00:15;18.98;;;10.40;;
75837;SDS011;64480;52.040;113.502;2023-07-31T00:03:19;18.48;;;9.75;;
75837;SDS011;64480;52.040;113.502;2023-07-31T00:06:22;22.20;;;11.50;;
75837;SDS011;64480;52.040;113.502;2023-07-31T00:09:26;18.50;;;11.10;;
75837;SDS011;64480;52.040;113.502;2023-07-31T00:12:30;15.82;;;11.10;;
75837;SDS011;64480;52.040;113.502;2023-07-31T00:15:34;17.95;;;9.65;;
75837;SDS011;64480;52.040;113.502;2023-07-31T00:18:38;21.35;;;11.50;;
75837;SDS011;64480;52.040;113.502;2023-07-31T00:24:52;22.88;;;10.65;;
75837;SDS011;64480;52.040;113.502;2023-07-31T00:27:56;15.82;;;11.43;;
75837;SDS011;64480;52.040;113.502;2023-07-31T00:31:00;26.17;;;11.70;;
75837;SDS011;64480;52.040;113.502;2023-07-31T00:34:05;18.58;;;14.23;;
75837;SDS011;64480;52.040;113.502;2023-07-31T00:37:09;17.73;;;10.48;;
75837;SDS011;64480;52.040;113.502;2023-07-31T00:40:13;13.85;;;10.65;;
75837;SDS011;64480;52.040;113.502;2023-07-31T00:43:17;15.88;;;10.25;;
75837;SDS011;64480;52.040;113.502;2023-07-31T00:46:21;22.95;;;12.82;;
75837;SDS011;64480;52.040;113.502;2023-07-31T00:49:25;17.10;;;9.98;;
75837;SDS011;64480;52.040;113.502;2023-07-31T00:52:30;18.63;;;12.88;;
75837;SDS011;64480;52.040;113.502;2023-07-31T00:55:33;14.07;;;10.07;;
75837;SDS011;64480;52.040;113.502;2023-07-31T00:58:46;17.02;;;11.60;;
75837;SDS011;64480;52.040;113.502;2023-07-31T01:01:50;23.27;;;11.43;;
75837;SDS011;64480;52.040;113.502;2023-07-31T01:04:55;13.68;;;10.82;;
75837;SDS011;64480;52.040;113.502;2023-07-31T01:08:12;16.80;;;10.95;;
75837;SDS011;64480;52.040;113.502;2023-07-31T01:11:29;15.10;;;10.95;;
75837;SDS011;64480;52.040;113.502;2023-07-31T01:14:35;19.40;;;12.95;;
75837;SDS011;64480;52.040;113.502;2023-07-31T01:17:41;17.52;;;10.27;;
75837;SDS011;64480;52.040;113.502;2023-07-31T01:20:46;14.88;;;9.68;;
75837;SDS011;64480;52.040;113.502;2023-07-31T01:27:32;14.30;;;8.88;;
75837;SDS011;64480;52.040;113.502;2023-07-31T01:30:43;15.65;;;9.00;;
75837;SDS011;64480;52.040;113.502;2023-07-31T01:33:51;20.35;;;10.98;;
75837;SDS011;64480;52.040;113.502;2023-07-31T01:36:57;14.15;;;10.38;;
75837;SDS011;64480;52.040;113.502;2023-07-31T01:40:01;19.77;;;10.35;;
75837;SDS011;64480;52.040;113.502;2023-07-31T01:43:05;18.17;;;9.90;;
75837;SDS011;64480;52.040;113.502;2023-07-31T01:46:08;18.08;;;11.25;;
75837;SDS011;64480;52.040;113.502;2023-07-31T01:49:14;16.85;;;9.88;;
75837;SDS011;64480;52.040;113.502;2023-07-31T01:52:18;17.02;;;10.35;;
75837;SDS011;64480;52.040;113.502;2023-07-31T01:55:21;13.98;;;9.82;;
75837;SDS011;64480;52.040;113.502;2023-07-31T01:58:24;19.50;;;10.63;;
75837;SDS011;64480;52.040;113.502;2023-07-31T02:01:27;13.13;;;8.85;;
75837;SDS011;64480;52.040;113.502;2023-07-31T02:04:33;20.40;;;9.18;;
75837;SDS011;64480;52.040;113.502;2023-07-31T02:07:37;22.50;;;10.02;;
75837;SDS011;64480;52.040;113.502;2023-07-31T02:10:42;17.23;;;8.80;;
75837;SDS011;64480;52.040;113.502;2023-07-31T02:13:47;25.50;;;11.02;;
75837;SDS011;64480;52.040;113.502;2023-07-31T02:17:04;13.05;;;9.23;;
75837;SDS011;64480;52.040;113.502;2023-07-31T02:20:08;21.20;;;8.90;;
75837;SDS011;64480;52.040;113.502;2023-07-31T02:23:12;10.73;;;9.27;;
75837;SDS011;64480;52.040;113.502;2023-07-31T02:26:17;10.02;;;7.57;;
75837;SDS011;64480;52.040;113.502;2023-07-31T02:29:20;16.15;;;8.85;;
75837;SDS011;64480;52.040;113.502;2023-07-31T02:32:24;19.13;;;10.48;;
75837;SDS011;64480;52.040;113.502;2023-07-31T02:35:28;18.63;;;10.07;;
75837;SDS011;64480;52.040;113.502;2023-07-31T02:38:32;9.07;;;6.70;;
75837;SDS011;64480;52.040;113.502;2023-07-31T02:41:35;11.25;;;8.00;;
75837;SDS011;64480;52.040;113.502;2023-07-31T02:44:38;13.40;;;9.20;;
75837;SDS011;64480;52.040;113.502;2023-07-31T02:47:43;11.20;;;8.07;;
75837;SDS011;64480;52.040;113.502;2023-07-31T02:50:47;10.27;;;6.32;;
75837;SDS011;64480;52.040;113.502;2023-07-31T02:53:52;14.82;;;8.20;;
75837;SDS011;64480;52.040;113.502;2023-07-31T02:56:55;23.35;;;10.07;;
75837;SDS011;64480;52.040;113.502;2023-07-31T03:00:02;21.35;;;8.38;;
75837;SDS011;64480;52.040;113.502;2023-07-31T03:03:10;22.38;;;9.20;;
75837;SDS011;64480;52.040;113.502;2023-07-31T03:06:14;17.15;;;8.80;;
75837;SDS011;64480;52.040;113.502;2023-07-31T03:09:19;15.38;;;8.85;;
75837;SDS011;64480;52.040;113.502;2023-07-31T03:12:22;20.38;;;8.20;;
75837;SDS011;64480;52.040;113.502;2023-07-31T03:15:26;10.98;;;7.63;;
75837;SDS011;64480;52.040;113.502;2023-07-31T03:18:31;16.65;;;8.20;;
75837;SDS011;64480;52.040;113.502;2023-07-31T03:21:34;14.52;;;9.35;;
75837;SDS011;64480;52.040;113.502;2023-07-31T03:24:38;15.82;;;7.45;;
75837;SDS011;64480;52.040;113.502;2023-07-31T03:27:44;11.52;;;8.85;;
75837;SDS011;64480;52.040;113.502;2023-07-31T03:30:47;15.18;;;8.20;;
75837;SDS011;64480;52.040;113.502;2023-07-31T03:33:53;18.63;;;9.48;;
75837;SDS011;64480;52.040;113.502;2023-07-31T03:36:58;12.10;;;8.55;;
75837;SDS011;64480;52.040;113.502;2023-07-31T03:40:04;10.98;;;7.38;;
75837;SDS011;64480;52.040;113.502;2023-07-31T03:43:08;12.82;;;7.93;;
75837;SDS011;64480;52.040;113.502;2023-07-31T03:46:13;20.67;;;8.13;;
75837;SDS011;64480;52.040;113.502;2023-07-31T03:49:17;14.75;;;9.60;;
75837;SDS011;64480;52.040;113.502;2023-07-31T03:52:23;14.18;;;7.85;;
75837;SDS011;64480;52.040;113.502;2023-07-31T03:55:26;24.60;;;8.90;;
75837;SDS011;64480;52.040;113.502;2023-07-31T03:58:30;11.55;;;6.45;;
75837;SDS011;64480;52.040;113.502;2023-07-31T04:01:34;11.55;;;6.97;;
75837;SDS011;64480;52.040;113.502;2023-07-31T04:04:39;17.98;;;8.43;;
75837;SDS011;64480;52.040;113.502;2023-07-31T04:07:43;21.88;;;7.15;;
75837;SDS011;64480;52.040;113.502;2023-07-31T04:10:47;11.52;;;6.00;;
75837;SDS011;64480;52.040;113.502;2023-07-31T04:13:52;10.52;;;6.10;;
75837;SDS011;64480;52.040;113.502;2023-07-31T04:17:09;15.60;;;7.97;;
75837;SDS011;64480;52.040;113.502;2023-07-31T04:20:17;12.10;;;8.18;;
75837;SDS011;64480;52.040;113.502;2023-07-31T04:23:21;15.98;;;7.57;;
75837;SDS011;64480;52.040;113.502;2023-07-31T04:26:25;8.10;;;6.97;;
75837;SDS011;64480;52.040;113.502;2023-07-31T04:29:31;19.23;;;7.35;;
75837;SDS011;64480;52.040;113.502;2023-07-31T04:32:39;13.85;;;8.35;;
75837;SDS011;64480;52.040;113.502;2023-07-31T04:35:53;23.65;;;14.63;;
75837;SDS011;64480;52.040;113.502;2023-07-31T04:38:59;20.73;;;8.23;;
75837;SDS011;64480;52.040;113.502;2023-07-31T04:42:17;12.52;;;7.18;;
75837;SDS011;64480;52.040;113.502;2023-07-31T04:45:21;19.88;;;8.73;;
75837;SDS011;64480;52.040;113.502;2023-07-31T04:48:25;14.50;;;8.10;;
75837;SDS011;64480;52.040;113.502;2023-07-31T04:51:28;23.30;;;10.35;;
75837;SDS011;64480;52.040;113.502;2023-07-31T04:54:32;19.02;;;10.70;;
75837;SDS011;64480;52.040;113.502;2023-07-31T04:57:36;21.17;;;14.45;;
75837;SDS011;64480;52.040;113.502;2023-07-31T05:00:40;24.48;;;11.90;;
75837;SDS011;64480;52.040;113.502;2023-07-31T05:03:45;27.20;;;12.07;;
75837;SDS011;64480;52.040;113.502;2023-07-31T05:06:49;16.42;;;10.05;;
75837;SDS011;64480;52.040;113.502;2023-07-31T05:09:52;21.95;;;10.77;;
75837;SDS011;64480;52.040;113.502;2023-07-31T05:12:59;21.02;;;7.25;;
75837;SDS011;64480;52.040;113.502;2023-07-31T05:16:04;12.57;;;5.35;;
75837;SDS011;64480;52.040;113.502;2023-07-31T05:19:08;11.77;;;4.85;;
75837;SDS011;64480;52.040;113.502;2023-07-31T05:22:11;14.55;;;5.88;;
75837;SDS011;64480;52.040;113.502;2023-07-31T05:25:15;17.17;;;6.15;;
75837;SDS011;64480;52.040;113.502;2023-07-31T05:28:21;12.25;;;5.38;;
75837;SDS011;64480;52.040;113.502;2023-07-31T05:31:26;12.00;;;5.78;;
75837;SDS011;64480;52.040;113.502;2023-07-31T05:34:29;18.48;;;5.38;;
75837;SDS011;64480;52.040;113.502;2023-07-31T05:37:33;14.43;;;5.47;;
75837;SDS011;64480;52.040;113.502;2023-07-31T05:40:39;15.82;;;5.72;;
75837;SDS011;64480;52.040;113.502;2023-07-31T05:43:48;17.65;;;5.60;;
75837;SDS011;64480;52.040;113.502;2023-07-31T05:47:03;7.30;;;4.15;;
75837;SDS011;64480;52.040;113.502;2023-07-31T05:53:39;12.38;;;6.05;;
75837;SDS011;64480;52.040;113.502;2023-07-31T05:56:57;13.02;;;5.53;;
75837;SDS011;64480;52.040;113.502;2023-07-31T06:00:14;18.70;;;5.63;;
75837;SDS011;64480;52.040;113.502;2023-07-31T06:03:32;15.98;;;5.65;;
75837;SDS011;64480;52.040;113.502;2023-07-31T06:06:36;10.57;;;5.55;;
75837;SDS011;64480;52.040;113.502;2023-07-31T06:09:41;20.02;;;12.00;;
75837;SDS011;64480;52.040;113.502;2023-07-31T06:12:46;10.95;;;5.45;;
75837;SDS011;64480;52.040;113.502;2023-07-31T06:15:57;14.18;;;6.75;;
75837;SDS011;64480;52.040;113.502;2023-07-31T06:19:12;29.92;;;7.47;;
75837;SDS011;64480;52.040;113.502;2023-07-31T06:22:20;14.45;;;6.38;;
75837;SDS011;64480;52.040;113.502;2023-07-31T06:25:37;9.73;;;4.90;;
75837;SDS011;64480;52.040;113.502;2023-07-31T06:28:57;12.68;;;5.88;;
75837;SDS011;64480;52.040;113.502;2023-07-31T06:32:02;16.88;;;7.45;;
75837;SDS011;64480;52.040;113.502;2023-07-31T06:35:08;17.75;;;6.53;;
75837;SDS011;64480;52.040;113.502;2023-07-31T06:38:13;15.50;;;6.70;;
75837;SDS011;64480;52.040;113.502;2023-07-31T06:41:19;12.07;;;7.13;;
75837;SDS011;64480;52.040;113.502;2023-07-31T06:44:23;14.95;;;6.55;;
75837;SDS011;64480;52.040;113.502;2023-07-31T06:47:29;15.27;;;6.40;;
75837;SDS011;64480;52.040;113.502;2023-07-31T06:50:40;18.17;;;6.93;;
75837;SDS011;64480;52.040;113.502;2023-07-31T06:53:44;14.73;;;6.63;;
75837;SDS011;64480;52.040;113.502;2023-07-31T06:56:49;10.70;;;5.68;;
75837;SDS011;64480;52.040;113.502;2023-07-31T06:59:56;13.32;;;6.25;;
75837;SDS011;64480;52.040;113.502;2023-07-31T07:03:01;9.57;;;5.90;;
75837;SDS011;64480;52.040;113.502;2023-07-31T07:06:05;13.27;;;6.68;;
75837;SDS011;64480;52.040;113.502;2023-07-31T07:09:10;14.05;;;6.20;;
75837;SDS011;64480;52.040;113.502;2023-07-31T07:12:29;18.15;;;7.18;;
75837;SDS011;64480;52.040;113.502;2023-07-31T07:15:48;11.80;;;5.32;;
75837;SDS011;64480;52.040;113.502;2023-07-31T07:18:59;11.98;;;6.07;;
75837;SDS011;64480;52.040;113.502;2023-07-31T07:22:26;11.45;;;5.88;;
75837;SDS011;64480;52.040;113.502;2023-07-31T07:25:37;15.38;;;6.53;;
75837;SDS011;64480;52.040;113.502;2023-07-31T07:28:55;11.30;;;5.78;;
75837;SDS011;64480;52.040;113.502;2023-07-31T07:32:12;11.00;;;5.80;;
75837;SDS011;64480;52.040;113.502;2023-07-31T07:35:16;15.43;;;6.72;;
75837;SDS011;64480;52.040;113.502;2023-07-31T07:38:34;13.75;;;5.80;;
75837;SDS011;64480;52.040;113.502;2023-07-31T07:41:52;10.65;;;5.60;;
75837;SDS011;64480;52.040;113.502;2023-07-31T07:44:59;11.45;;;5.32;;
75837;SDS011;64480;52.040;113.502;2023-07-31T07:48:07;10.75;;;6.03;;
75837;SDS011;64480;52.040;113.502;2023-07-31T07:51:10;12.90;;;6.18;;
75837;SDS011;64480;52.040;113.502;2023-07-31T07:54:14;12.00;;;5.53;;
75837;SDS011;64480;52.040;113.502;2023-07-31T07:57:20;14.63;;;5.47;;
75837;SDS011;64480;52.040;113.502;2023-07-31T08:00:24;12.27;;;6.32;;
75837;SDS011;64480;52.040;113.502;2023-07-31T08:03:30;23.58;;;7.97;;
75837;SDS011;64480;52.040;113.502;2023-07-31T08:06:36;9.35;;;6.10;;
75837;SDS011;64480;52.040;113.502;2023-07-31T08:09:53;14.02;;;6.85;;
75837;SDS011;64480;52.040;113.502;2023-07-31T08:13:11;16.00;;;6.47;;
75837;SDS011;64480;52.040;113.502;2023-07-31T08:16:17;12.30;;;5.85;;
75837;SDS011;64480;52.040;113.502;2023-07-31T08:19:37;8.90;;;5.80;;
75837;SDS011;64480;52.040;113.502;2023-07-31T08:22:41;13.32;;;6.20;;
75837;SDS011;64480;52.040;113.502;2023-07-31T08:25:45;10.90;;;6.03;;
75837;SDS011;64480;52.040;113.502;2023-07-31T08:28:50;14.27;;;5.97;;
75837;SDS011;64480;52.040;113.502;2023-07-31T08:31:55;12.50;;;5.85;;
75837;SDS011;64480;52.040;113.502;2023-07-31T08:35:06;19.27;;;6.03;;
75837;SDS011;64480;52.040;113.502;2023-07-31T08:38:12;14.30;;;6.20;;
75837;SDS011;64480;52.040;113.502;2023-07-31T08:41:24;16.13;;;6.15;;
75837;SDS011;64480;52.040;113.502;2023-07-31T08:44:29;15.48;;;6.28;;
75837;SDS011;64480;52.040;113.502;2023-07-31T08:47:35;19.90;;;7.35;;
75837;SDS011;64480;52.040;113.502;2023-07-31T08:50:39;20.52;;;7.22;;
75837;SDS011;64480;52.040;113.502;2023-07-31T08:53:44;17.98;;;7.25;;
75837;SDS011;64480;52.040;113.502;2023-07-31T08:56:48;20.02;;;7.38;;
75837;SDS011;64480;52.040;113.502;2023-07-31T09:00:09;24.83;;;7.15;;
75837;SDS011;64480;52.040;113.502;2023-07-31T09:03:15;17.80;;;6.80;;
75837;SDS011;64480;52.040;113.502;2023-07-31T09:06:20;19.70;;;6.63;;
75837;SDS011;64480;52.040;113.502;2023-07-31T09:09:27;20.52;;;5.90;;
75837;SDS011;64480;52.040;113.502;2023-07-31T09:12:31;17.98;;;7.18;;
75837;SDS011;64480;52.040;113.502;2023-07-31T09:15:36;20.75;;;4.97;;
75837;SDS011;64480;52.040;113.502;2023-07-31T09:18:53;13.77;;;5.25;;
75837;SDS011;64480;52.040;113.502;2023-07-31T09:22:01;23.75;;;7.75;;
75837;SDS011;64480;52.040;113.502;2023-07-31T09:25:20;20.23;;;6.72;;
75837;SDS011;64480;52.040;113.502;2023-07-31T09:28:39;17.35;;;5.75;;
75837;SDS011;64480;52.040;113.502;2023-07-31T09:31:56;11.82;;;6.32;;
75837;SDS011;64480;52.040;113.502;2023-07-31T09:35:33;20.50;;;6.38;;
75837;SDS011;64480;52.040;113.502;2023-07-31T09:38:41;17.52;;;6.03;;
75837;SDS011;64480;52.040;113.502;2023-07-31T09:41:47;14.80;;;5.57;;
75837;SDS011;64480;52.040;113.502;2023-07-31T09:45:10;13.25;;;6.13;;
75837;SDS011;64480;52.040;113.502;2023-07-31T09:48:27;17.17;;;5.88;;
75837;SDS011;64480;52.040;113.502;2023-07-31T09:51:38;14.63;;;5.60;;
75837;SDS011;64480;52.040;113.502;2023-07-31T09:54:56;17.10;;;6.38;;
75837;SDS011;64480;52.040;113.502;2023-07-31T09:58:15;20.23;;;6.22;;
75837;SDS011;64480;52.040;113.502;2023-07-31T10:01:24;17.60;;;7.70;;
75837;SDS011;64480;52.040;113.502;2023-07-31T10:04:33;14.68;;;6.72;;
75837;SDS011;64480;52.040;113.502;2023-07-31T10:07:37;16.33;;;6.25;;
75837;SDS011;64480;52.040;113.502;2023-07-31T10:10:45;15.70;;;6.05;;
75837;SDS011;64480;52.040;113.502;2023-07-31T10:14:03;12.98;;;6.28;;
75837;SDS011;64480;52.040;113.502;2023-07-31T10:17:08;23.88;;;7.35;;
75837;SDS011;64480;52.040;113.502;2023-07-31T10:20:13;14.20;;;6.05;;
75837;SDS011;64480;52.040;113.502;2023-07-31T10:23:19;13.32;;;6.00;;
75837;SDS011;64480;52.040;113.502;2023-07-31T10:26:32;15.57;;;6.57;;
75837;SDS011;64480;52.040;113.502;2023-07-31T10:29:41;21.05;;;6.88;;
75837;SDS011;64480;52.040;113.502;2023-07-31T10:32:53;16.52;;;7.00;;
75837;SDS011;64480;52.040;113.502;2023-07-31T10:36:16;23.30;;;8.07;;
75837;SDS011;64480;52.040;113.502;2023-07-31T10:39:35;19.00;;;7.13;;
75837;SDS011;64480;52.040;113.502;2023-07-31T10:46:07;24.70;;;8.05;;
75837;SDS011;64480;52.040;113.502;2023-07-31T10:49:13;18.17;;;7.93;;
75837;SDS011;64480;52.040;113.502;2023-07-31T10:52:38;24.88;;;18.15;;
75837;SDS011;64480;52.040;113.502;2023-07-31T10:55:42;15.82;;;6.72;;
75837;SDS011;64480;52.040;113.502;2023-07-31T11:02:25;13.00;;;6.90;;
75837;SDS011;64480;52.040;113.502;2023-07-31T11:05:51;17.27;;;6.93;;
75837;SDS011;64480;52.040;113.502;2023-07-31T11:09:19;11.43;;;8.52;;
75837;SDS011;64480;52.040;113.502;2023-07-31T11:12:29;17.92;;;6.85;;
75837;SDS011;64480;52.040;113.502;2023-07-31T11:19:29;20.63;;;7.72;;
75837;SDS011;64480;52.040;113.502;2023-07-31T11:22:35;23.90;;;8.38;;
75837;SDS011;64480;52.040;113.502;2023-07-31T11:25:51;20.33;;;8.00;;
75837;SDS011;64480;52.040;113.502;2023-07-31T11:29:12;15.48;;;8.40;;
75837;SDS011;64480;52.040;113.502;2023-07-31T11:32:30;13.80;;;6.97;;
75837;SDS011;64480;52.040;113.502;2023-07-31T11:35:41;22.83;;;7.70;;
75837;SDS011;64480;52.040;113.502;2023-07-31T11:39:04;12.73;;;6.93;;
75837;SDS011;64480;52.040;113.502;2023-07-31T11:42:11;19.92;;;7.82;;
75837;SDS011;64480;52.040;113.502;2023-07-31T11:45:32;15.52;;;6.70;;
75837;SDS011;64480;52.040;113.502;2023-07-31T11:48:39;11.32;;;5.78;;
75837;SDS011;64480;52.040;113.502;2023-07-31T11:51:43;14.18;;;5.13;;
75837;SDS011;64480;52.040;113.502;2023-07-31T11:54:56;19.10;;;5.95;;
75837;SDS011;64480;52.040;113.502;2023-07-31T11:58:15;25.00;;;5.22;;
75837;SDS011;64480;52.040;113.502;2023-07-31T12:01:24;12.23;;;4.90;;
75837;SDS011;64480;52.040;113.502;2023-07-31T12:04:46;7.55;;;4.78;;
75837;SDS011;64480;52.040;113.502;2023-07-31T12:08:05;11.48;;;5.30;;
75837;SDS011;64480;52.040;113.502;2023-07-31T12:11:14;15.98;;;5.00;;
75837;SDS011;64480;52.040;113.502;2023-07-31T12:14:31;15.18;;;5.30;;
75837;SDS011;64480;52.040;113.502;2023-07-31T12:17:39;14.40;;;5.60;;
75837;SDS011;64480;52.040;113.502;2023-07-31T12:20:45;7.97;;;5.30;;
75837;SDS011;64480;52.040;113.502;2023-07-31T12:24:04;15.95;;;5.65;;
75837;SDS011;64480;52.040;113.502;2023-07-31T12:27:15;11.48;;;5.30;;
75837;SDS011;64480;52.040;113.502;2023-07-31T12:30:41;13.38;;;5.28;;
75837;SDS011;64480;52.040;113.502;2023-07-31T12:33:47;10.02;;;5.45;;
75837;SDS011;64480;52.040;113.502;2023-07-31T12:36:54;11.95;;;4.70;;
75837;SDS011;64480;52.040;113.502;2023-07-31T12:40:01;15.10;;;5.57;;
75837;SDS011;64480;52.040;113.502;2023-07-31T12:43:10;15.07;;;4.72;;
75837;SDS011;64480;52.040;113.502;2023-07-31T12:46:14;11.88;;;5.20;;
75837;SDS011;64480;52.040;113.502;2023-07-31T12:52:26;12.00;;;4.75;;
75837;SDS011;64480;52.040;113.502;2023-07-31T12:55:38;13.18;;;4.95;;
75837;SDS011;64480;52.040;113.502;2023-07-31T12:58:43;11.80;;;4.60;;
75837;SDS011;64480;52.040;113.502;2023-07-31T13:01:47;15.43;;;5.47;;
75837;SDS011;64480;52.040;113.502;2023-07-31T13:05:04;13.35;;;5.45;;
75837;SDS011;64480;52.040;113.502;2023-07-31T13:08:22;12.80;;;5.25;;
75837;SDS011;64480;52.040;113.502;2023-07-31T13:11:26;14.80;;;5.13;;
75837;SDS011;64480;52.040;113.502;2023-07-31T13:14:41;14.90;;;5.68;;
75837;SDS011;64480;52.040;113.502;2023-07-31T13:17:45;14.00;;;4.78;;
75837;SDS011;64480;52.040;113.502;2023-07-31T13:20:50;13.90;;;5.15;;
75837;SDS011;64480;52.040;113.502;2023-07-31T13:24:16;11.38;;;4.55;;
75837;SDS011;64480;52.040;113.502;2023-07-31T13:27:25;16.27;;;5.63;;
75837;SDS011;64480;52.040;113.502;2023-07-31T13:30:31;14.20;;;5.35;;
75837;SDS011;64480;52.040;113.502;2023-07-31T13:33:40;14.80;;;5.63;;
75837;SDS011;64480;52.040;113.502;2023-07-31T13:36:46;20.60;;;6.32;;
75837;SDS011;64480;52.040;113.502;2023-07-31T13:39:53;15.70;;;6.03;;
75837;SDS011;64480;52.040;113.502;2023-07-31T13:42:58;16.48;;;5.75;;
75837;SDS011;64480;52.040;113.502;2023-07-31T13:46:09;18.08;;;6.75;;
75837;SDS011;64480;52.040;113.502;2023-07-31T13:49:17;15.93;;;6.60;;
75837;SDS011;64480;52.040;113.502;2023-07-31T13:52:22;26.77;;;5.95;;
75837;SDS011;64480;52.040;113.502;2023-07-31T13:55:28;18.02;;;6.57;;
75837;SDS011;64480;52.040;113.502;2023-07-31T13:58:35;23.48;;;6.03;;
75837;SDS011;64480;52.040;113.502;2023-07-31T14:01:39;16.73;;;6.65;;
75837;SDS011;64480;52.040;113.502;2023-07-31T14:04:44;16.42;;;6.07;;
75837;SDS011;64480;52.040;113.502;2023-07-31T14:07:49;18.50;;;5.13;;
75837;SDS011;64480;52.040;113.502;2023-07-31T14:10:53;23.05;;;8.23;;
75837;SDS011;64480;52.040;113.502;2023-07-31T14:13:56;17.45;;;6.57;;
75837;SDS011;64480;52.040;113.502;2023-07-31T14:17:00;25.77;;;8.65;;
75837;SDS011;64480;52.040;113.502;2023-07-31T14:20:06;21.05;;;7.47;;
75837;SDS011;64480;52.040;113.502;2023-07-31T14:23:13;19.33;;;9.15;;
75837;SDS011;64480;52.040;113.502;2023-07-31T14:26:17;22.15;;;7.30;;
75837;SDS011;64480;52.040;113.502;2023-07-31T14:29:34;15.85;;;7.65;;
75837;SDS011;64480;52.040;113.502;2023-07-31T14:32:42;13.85;;;7.07;;
75837;SDS011;64480;52.040;113.502;2023-07-31T14:35:46;17.50;;;7.55;;
75837;SDS011;64480;52.040;113.502;2023-07-31T14:38:51;15.98;;;7.30;;
75837;SDS011;64480;52.040;113.502;2023-07-31T14:41:54;16.25;;;7.90;;
75837;SDS011;64480;52.040;113.502;2023-07-31T14:44:58;12.50;;;7.95;;
75837;SDS011;64480;52.040;113.502;2023-07-31T14:48:02;18.13;;;7.63;;
75837;SDS011;64480;52.040;113.502;2023-07-31T14:51:19;10.77;;;6.72;;
75837;SDS011;64480;52.040;113.502;2023-07-31T14:54:23;16.85;;;7.80;;
75837;SDS011;64480;52.040;113.502;2023-07-31T14:57:27;20.40;;;8.15;;
75837;SDS011;64480;52.040;113.502;2023-07-31T15:00:32;17.08;;;7.35;;
75837;SDS011;64480;52.040;113.502;2023-07-31T15:03:36;15.52;;;7.57;;
75837;SDS011;64480;52.040;113.502;2023-07-31T15:06:39;13.25;;;6.60;;
75837;SDS011;64480;52.040;113.502;2023-07-31T15:09:48;15.68;;;7.05;;
75837;SDS011;64480;52.040;113.502;2023-07-31T15:12:52;19.50;;;6.95;;
75837;SDS011;64480;52.040;113.502;2023-07-31T15:15:57;18.65;;;7.35;;
75837;SDS011;64480;52.040;113.502;2023-07-31T15:19:05;18.42;;;7.10;;
75837;SDS011;64480;52.040;113.502;2023-07-31T15:22:10;13.50;;;7.43;;
75837;SDS011;64480;52.040;113.502;2023-07-31T15:25:14;11.25;;;6.28;;
75837;SDS011;64480;52.040;113.502;2023-07-31T15:28:18;14.25;;;6.55;;
75837;SDS011;64480;52.040;113.502;2023-07-31T15:31:23;16.75;;;7.10;;
75837;SDS011;64480;52.040;113.502;2023-07-31T15:34:27;13.77;;;6.88;;
75837;SDS011;64480;52.040;113.502;2023-07-31T15:37:31;12.68;;;6.90;;
75837;SDS011;64480;52.040;113.502;2023-07-31T15:40:38;10.30;;;6.30;;
75837;SDS011;64480;52.040;113.502;2023-07-31T15:43:43;15.88;;;6.82;;
75837;SDS011;64480;52.040;113.502;2023-07-31T15:46:50;12.55;;;6.45;;
75837;SDS011;64480;52.040;113.502;2023-07-31T15:49:55;14.88;;;6.55;;
75837;SDS011;64480;52.040;113.502;2023-07-31T15:52:59;14.48;;;6.90;;
75837;SDS011;64480;52.040;113.502;2023-07-31T15:56:06;12.25;;;6.35;;
75837;SDS011;64480;52.040;113.502;2023-07-31T15:59:10;16.55;;;7.30;;
75837;SDS011;64480;52.040;113.502;2023-07-31T16:02:14;18.50;;;8.32;;
75837;SDS011;64480;52.040;113.502;2023-07-31T16:05:18;12.65;;;8.07;;
75837;SDS011;64480;52.040;113.502;2023-07-31T16:08:21;11.02;;;7.85;;
75837;SDS011;64480;52.040;113.502;2023-07-31T16:11:25;19.88;;;8.10;;
75837;SDS011;64480;52.040;113.502;2023-07-31T16:14:30;17.25;;;8.07;;
75837;SDS011;64480;52.040;113.502;2023-07-31T16:17:34;12.82;;;7.50;;
75837;SDS011;64480;52.040;113.502;2023-07-31T16:20:38;17.17;;;8.40;;
75837;SDS011;64480;52.040;113.502;2023-07-31T16:23:44;20.20;;;7.53;;
75837;SDS011;64480;52.040;113.502;2023-07-31T16:26:48;13.93;;;6.80;;
75837;SDS011;64480;52.040;113.502;2023-07-31T16:29:53;12.93;;;7.32;;
75837;SDS011;64480;52.040;113.502;2023-07-31T16:32:58;10.98;;;7.13;;
75837;SDS011;64480;52.040;113.502;2023-07-31T16:36:02;12.20;;;6.78;;
75837;SDS011;64480;52.040;113.502;2023-07-31T16:39:05;20.10;;;8.18;;
75837;SDS011;64480;52.040;113.502;2023-07-31T16:42:09;9.68;;;6.78;;
75837;SDS011;64480;52.040;113.502;2023-07-31T16:45:14;12.90;;;7.68;;
75837;SDS011;64480;52.040;113.502;2023-07-31T16:48:17;10.05;;;6.95;;
75837;SDS011;64480;52.040;113.502;2023-07-31T16:51:20;9.68;;;7.20;;
75837;SDS011;64480;52.040;113.502;2023-07-31T16:54:25;12.70;;;7.50;;
75837;SDS011;64480;52.040;113.502;2023-07-31T16:57:30;14.70;;;7.35;;
75837;SDS011;64480;52.040;113.502;2023-07-31T17:00:34;10.82;;;7.03;;
75837;SDS011;64480;52.040;113.502;2023-07-31T17:03:38;12.48;;;6.60;;
75837;SDS011;64480;52.040;113.502;2023-07-31T17:06:42;15.02;;;7.70;;
75837;SDS011;64480;52.040;113.502;2023-07-31T17:09:46;12.48;;;7.03;;
75837;SDS011;64480;52.040;113.502;2023-07-31T17:12:50;11.40;;;6.35;;
75837;SDS011;64480;52.040;113.502;2023-07-31T17:15:54;12.98;;;6.82;;
75837;SDS011;64480;52.040;113.502;2023-07-31T17:18:59;12.02;;;6.88;;
75837;SDS011;64480;52.040;113.502;2023-07-31T17:22:03;13.38;;;7.00;;
75837;SDS011;64480;52.040;113.502;2023-07-31T17:25:08;11.10;;;7.00;;
75837;SDS011;64480;52.040;113.502;2023-07-31T17:28:12;10.77;;;6.65;;
75837;SDS011;64480;52.040;113.502;2023-07-31T17:31:17;14.07;;;6.82;;
75837;SDS011;64480;52.040;113.502;2023-07-31T17:34:21;12.43;;;7.25;;
75837;SDS011;64480;52.040;113.502;2023-07-31T17:37:26;17.73;;;6.78;;
75837;SDS011;64480;52.040;113.502;2023-07-31T17:40:31;9.75;;;5.50;;
75837;SDS011;64480;52.040;113.502;2023-07-31T17:43:35;11.98;;;7.68;;
75837;SDS011;64480;52.040;113.502;2023-07-31T17:46:38;14.48;;;6.20;;
75837;SDS011;64480;52.040;113.502;2023-07-31T17:49:43;9.38;;;6.47;;
75837;SDS011;64480;52.040;113.502;2023-07-31T17:52:46;14.15;;;6.40;;
75837;SDS011;64480;52.040;113.502;2023-07-31T17:55:49;10.63;;;6.45;;
75837;SDS011;64480;52.040;113.502;2023-07-31T17:58:53;11.73;;;6.03;;
75837;SDS011;64480;52.040;113.502;2023-07-31T18:01:57;10.18;;;6.90;;
75837;SDS011;64480;52.040;113.502;2023-07-31T18:05:01;12.88;;;7.45;;
75837;SDS011;64480;52.040;113.502;2023-07-31T18:08:04;13.68;;;7.45;;
75837;SDS011;64480;52.040;113.502;2023-07-31T18:11:08;17.05;;;7.15;;
75837;SDS011;64480;52.040;113.502;2023-07-31T18:14:13;14.15;;;7.25;;
75837;SDS011;64480;52.040;113.502;2023-07-31T18:17:17;11.40;;;6.82;;
75837;SDS011;64480;52.040;113.502;2023-07-31T18:20:20;12.30;;;6.43;;
75837;SDS011;64480;52.040;113.502;2023-07-31T18:23:25;14.35;;;7.82;;